sensor_id;sensor_type;location;lat;lon;timestamp;temperature;humidity
28725;DHT22;43472;48.980;9.646;2024-02-16T00:09:45;9.50;99.90
28725;DHT22;43472;48.980;9.646;2024-02-16T00:19:56;9.60;99.90
28725;DHT22;43472;48.980;9.646;2024-02-16T00:24:59;10.50;99.90
28725;DHT22;43472;48.980;9.646;2024-02-16T00:35:04;9.50;99.90
28725;DHT22;43472;48.980;9.646;2024-02-16T00:40:07;9.60;99.90
28725;DHT22;43472;48.980;9.646;2024-02-16T00:45:09;9.70;99.90
28725;DHT22;43472;48.980;9.646;2024-02-16T01:00:18;9.70;99.90
28725;DHT22;43472;48.980;9.646;2024-02-16T01:05:22;9.70;99.90
28725;DHT22;43472;48.980;9.646;2024-02-16T01:10:25;10.90;99.90
28725;DHT22;43472;48.980;9.646;2024-02-16T01:20:31;9.70;99.90
28725;DHT22;43472;48.980;9.646;2024-02-16T01:25:33;9.80;99.90
28725;DHT22;43472;48.980;9.646;2024-02-16T01:30:35;9.70;99.90
28725;DHT22;43472;48.980;9.646;2024-02-16T01:35:39;9.70;99.90
28725;DHT22;43472;48.980;9.646;2024-02-16T01:45:43;9.80;99.90
28725;DHT22;43472;48.980;9.646;2024-02-16T01:50:46;9.70;99.90
28725;DHT22;43472;48.980;9.646;2024-02-16T01:55:50;9.90;99.90
28725;DHT22;43472;48.980;9.646;2024-02-16T02:00:52;9.80;99.90
28725;DHT22;43472;48.980;9.646;2024-02-16T02:05:55;9.80;99.90
28725;DHT22;43472;48.980;9.646;2024-02-16T02:10:58;10.20;99.90
28725;DHT22;43472;48.980;9.646;2024-02-16T02:16:00;9.80;99.90
28725;DHT22;43472;48.980;9.646;2024-02-16T02:36:12;9.70;99.90
28725;DHT22;43472;48.980;9.646;2024-02-16T02:41:16;9.70;99.90
28725;DHT22;43472;48.980;9.646;2024-02-16T02:46:23;9.70;99.90
28725;DHT22;43472;48.980;9.646;2024-02-16T02:56:33;9.80;99.90
28725;DHT22;43472;48.980;9.646;2024-02-16T03:06:38;9.80;99.90
28725;DHT22;43472;48.980;9.646;2024-02-16T03:11:41;9.70;99.90
28725;DHT22;43472;48.980;9.646;2024-02-16T03:21:47;9.70;99.90
28725;DHT22;43472;48.980;9.646;2024-02-16T03:36:55;9.30;99.90
28725;DHT22;43472;48.980;9.646;2024-02-16T03:41:57;9.40;99.90
28725;DHT22;43472;48.980;9.646;2024-02-16T03:46:59;9.70;99.90
28725;DHT22;43472;48.980;9.646;2024-02-16T03:52:03;9.70;99.90
28725;DHT22;43472;48.980;9.646;2024-02-16T04:02:12;9.60;99.90
28725;DHT22;43472;48.980;9.646;2024-02-16T04:27:27;9.70;99.90
28725;DHT22;43472;48.980;9.646;2024-02-16T04:32:30;10.30;99.90
28725;DHT22;43472;48.980;9.646;2024-02-16T04:47:41;9.80;99.90
28725;DHT22;43472;48.980;9.646;2024-02-16T04:57:47;9.60;99.90
28725;DHT22;43472;48.980;9.646;2024-02-16T05:02:50;9.80;99.90
28725;DHT22;43472;48.980;9.646;2024-02-16T05:23:05;9.80;99.90
28725;DHT22;43472;48.980;9.646;2024-02-16T05:38:12;9.80;99.90
28725;DHT22;43472;48.980;9.646;2024-02-16T05:43:23;9.60;99.90
28725;DHT22;43472;48.980;9.646;2024-02-16T06:13:41;9.70;99.90
28725;DHT22;43472;48.980;9.646;2024-02-16T06:18:44;9.80;99.90
28725;DHT22;43472;48.980;9.646;2024-02-16T06:43:58;9.60;99.90
28725;DHT22;43472;48.980;9.646;2024-02-16T07:09:12;9.90;99.90
28725;DHT22;43472;48.980;9.646;2024-02-16T07:14:17;10.00;99.90
28725;DHT22;43472;48.980;9.646;2024-02-16T07:49:38;10.30;99.90
28725;DHT22;43472;48.980;9.646;2024-02-16T07:59:44;10.40;99.90
28725;DHT22;43472;48.980;9.646;2024-02-16T08:04:47;10.60;99.90
28725;DHT22;43472;48.980;9.646;2024-02-16T08:30:05;10.90;99.90
28725;DHT22;43472;48.980;9.646;2024-02-16T08:40:12;11.00;99.90
28725;DHT22;43472;48.980;9.646;2024-02-16T08:45:18;11.20;99.90
28725;DHT22;43472;48.980;9.646;2024-02-16T08:55:23;11.70;99.90
28725;DHT22;43472;48.980;9.646;2024-02-16T09:00:25;11.80;99.90
28725;DHT22;43472;48.980;9.646;2024-02-16T09:10:32;11.80;99.90
28725;DHT22;43472;48.980;9.646;2024-02-16T09:20:40;12.00;99.90
28725;DHT22;43472;48.980;9.646;2024-02-16T09:25:42;12.40;99.90
28725;DHT22;43472;48.980;9.646;2024-02-16T09:30:45;12.70;99.90
28725;DHT22;43472;48.980;9.646;2024-02-16T09:35:48;12.90;99.90
28725;DHT22;43472;48.980;9.646;2024-02-16T09:45:57;13.80;99.90
28725;DHT22;43472;48.980;9.646;2024-02-16T09:51:00;14.60;99.90
28725;DHT22;43472;48.980;9.646;2024-02-16T09:56:05;15.40;99.90
28725;DHT22;43472;48.980;9.646;2024-02-16T10:01:17;15.40;99.90
28725;DHT22;43472;48.980;9.646;2024-02-16T10:06:21;15.80;99.90
28725;DHT22;43472;48.980;9.646;2024-02-16T10:11:26;15.90;99.90
28725;DHT22;43472;48.980;9.646;2024-02-16T10:16:32;16.00;99.90
28725;DHT22;43472;48.980;9.646;2024-02-16T10:21:34;15.70;99.90
28725;DHT22;43472;48.980;9.646;2024-02-16T10:26:37;15.90;99.90
28725;DHT22;43472;48.980;9.646;2024-02-16T10:31:40;15.80;99.90
28725;DHT22;43472;48.980;9.646;2024-02-16T10:36:42;15.70;99.90
28725;DHT22;43472;48.980;9.646;2024-02-16T10:41:45;16.10;99.90
28725;DHT22;43472;48.980;9.646;2024-02-16T10:51:54;16.20;99.90
28725;DHT22;43472;48.980;9.646;2024-02-16T10:56:59;16.80;99.90
28725;DHT22;43472;48.980;9.646;2024-02-16T11:02:01;16.60;99.90
28725;DHT22;43472;48.980;9.646;2024-02-16T11:07:11;16.50;99.90
28725;DHT22;43472;48.980;9.646;2024-02-16T11:12:14;16.60;99.90
28725;DHT22;43472;48.980;9.646;2024-02-16T11:17:21;16.60;99.90
28725;DHT22;43472;48.980;9.646;2024-02-16T11:22:27;16.90;99.90
28725;DHT22;43472;48.980;9.646;2024-02-16T11:27:31;16.70;99.90
28725;DHT22;43472;48.980;9.646;2024-02-16T11:32:33;16.70;99.90
28725;DHT22;43472;48.980;9.646;2024-02-16T11:37:38;16.70;99.90
28725;DHT22;43472;48.980;9.646;2024-02-16T11:42:40;17.00;99.90
28725;DHT22;43472;48.980;9.646;2024-02-16T11:47:45;17.10;99.90
28725;DHT22;43472;48.980;9.646;2024-02-16T11:52:50;17.10;99.90
28725;DHT22;43472;48.980;9.646;2024-02-16T11:57:55;17.20;99.90
28725;DHT22;43472;48.980;9.646;2024-02-16T12:02:59;17.00;99.90
28725;DHT22;43472;48.980;9.646;2024-02-16T12:08:06;17.00;99.90
28725;DHT22;43472;48.980;9.646;2024-02-16T12:13:09;17.00;99.90
28725;DHT22;43472;48.980;9.646;2024-02-16T12:18:20;17.10;99.90
28725;DHT22;43472;48.980;9.646;2024-02-16T12:23:22;17.50;99.90
28725;DHT22;43472;48.980;9.646;2024-02-16T12:28:26;17.70;99.90
28725;DHT22;43472;48.980;9.646;2024-02-16T12:33:33;17.70;99.90
28725;DHT22;43472;48.980;9.646;2024-02-16T12:38:39;18.10;99.90
28725;DHT22;43472;48.980;9.646;2024-02-16T12:43:42;18.10;99.90
28725;DHT22;43472;48.980;9.646;2024-02-16T12:48:44;18.30;99.90
28725;DHT22;43472;48.980;9.646;2024-02-16T12:53:50;17.90;99.90
28725;DHT22;43472;48.980;9.646;2024-02-16T12:58:52;17.60;99.90
28725;DHT22;43472;48.980;9.646;2024-02-16T13:03:55;18.00;99.90
28725;DHT22;43472;48.980;9.646;2024-02-16T13:08:56;17.10;99.90
28725;DHT22;43472;48.980;9.646;2024-02-16T13:13:59;17.00;99.90
28725;DHT22;43472;48.980;9.646;2024-02-16T13:19:01;17.10;99.90
28725;DHT22;43472;48.980;9.646;2024-02-16T13:24:06;16.90;99.90
28725;DHT22;43472;48.980;9.646;2024-02-16T13:29:08;16.70;99.90
28725;DHT22;43472;48.980;9.646;2024-02-16T13:34:11;16.60;99.90
28725;DHT22;43472;48.980;9.646;2024-02-16T13:39:13;16.70;99.90
28725;DHT22;43472;48.980;9.646;2024-02-16T13:44:17;16.70;99.90
28725;DHT22;43472;48.980;9.646;2024-02-16T13:49:20;16.60;99.90
28725;DHT22;43472;48.980;9.646;2024-02-16T13:54:22;16.60;99.90
28725;DHT22;43472;48.980;9.646;2024-02-16T13:59:25;16.60;99.90
28725;DHT22;43472;48.980;9.646;2024-02-16T14:04:28;16.30;99.90
28725;DHT22;43472;48.980;9.646;2024-02-16T14:09:31;16.30;99.90
28725;DHT22;43472;48.980;9.646;2024-02-16T14:14:35;16.20;99.90
28725;DHT22;43472;48.980;9.646;2024-02-16T14:19:39;16.10;99.90
28725;DHT22;43472;48.980;9.646;2024-02-16T14:24:41;16.00;99.90
28725;DHT22;43472;48.980;9.646;2024-02-16T14:29:43;16.00;99.90
28725;DHT22;43472;48.980;9.646;2024-02-16T14:34:45;15.90;99.90
28725;DHT22;43472;48.980;9.646;2024-02-16T14:39:48;15.70;99.90
28725;DHT22;43472;48.980;9.646;2024-02-16T14:44:50;15.70;99.90
28725;DHT22;43472;48.980;9.646;2024-02-16T14:49:56;15.70;99.90
28725;DHT22;43472;48.980;9.646;2024-02-16T14:54:58;15.70;99.90
28725;DHT22;43472;48.980;9.646;2024-02-16T15:00:01;15.70;99.90
28725;DHT22;43472;48.980;9.646;2024-02-16T15:05:07;15.60;99.90
28725;DHT22;43472;48.980;9.646;2024-02-16T15:10:09;15.60;99.90
28725;DHT22;43472;48.980;9.646;2024-02-16T15:15:12;15.60;99.90
28725;DHT22;43472;48.980;9.646;2024-02-16T15:20:15;15.60;99.90
28725;DHT22;43472;48.980;9.646;2024-02-16T15:25:17;15.50;99.90
28725;DHT22;43472;48.980;9.646;2024-02-16T15:30:20;15.40;99.90
28725;DHT22;43472;48.980;9.646;2024-02-16T15:35:22;15.40;99.90
28725;DHT22;43472;48.980;9.646;2024-02-16T15:40:25;15.40;99.90
28725;DHT22;43472;48.980;9.646;2024-02-16T15:45:28;15.40;99.90
28725;DHT22;43472;48.980;9.646;2024-02-16T15:50:30;15.20;99.90
28725;DHT22;43472;48.980;9.646;2024-02-16T15:55:32;15.20;99.90
28725;DHT22;43472;48.980;9.646;2024-02-16T16:05:37;15.20;99.90
28725;DHT22;43472;48.980;9.646;2024-02-16T16:10:40;15.20;99.90
28725;DHT22;43472;48.980;9.646;2024-02-16T16:15:43;15.20;99.90
28725;DHT22;43472;48.980;9.646;2024-02-16T16:20:47;15.00;99.90
28725;DHT22;43472;48.980;9.646;2024-02-16T16:25:51;17.30;99.90
28725;DHT22;43472;48.980;9.646;2024-02-16T16:30:53;14.80;99.90
28725;DHT22;43472;48.980;9.646;2024-02-16T16:51:02;14.70;99.90
28725;DHT22;43472;48.980;9.646;2024-02-16T16:56:05;14.70;99.90
28725;DHT22;43472;48.980;9.646;2024-02-16T17:06:10;14.70;99.90
28725;DHT22;43472;48.980;9.646;2024-02-16T17:11:13;14.60;99.90
28725;DHT22;43472;48.980;9.646;2024-02-16T17:16:16;14.60;99.90
28725;DHT22;43472;48.980;9.646;2024-02-16T17:26:22;14.50;99.90
28725;DHT22;43472;48.980;9.646;2024-02-16T17:36:26;14.30;99.90
28725;DHT22;43472;48.980;9.646;2024-02-16T17:41:29;14.30;99.90
28725;DHT22;43472;48.980;9.646;2024-02-16T17:46:32;14.20;99.90
28725;DHT22;43472;48.980;9.646;2024-02-16T17:51:34;14.30;99.90
28725;DHT22;43472;48.980;9.646;2024-02-16T17:56:37;14.20;99.90
28725;DHT22;43472;48.980;9.646;2024-02-16T18:01:39;14.10;99.90
28725;DHT22;43472;48.980;9.646;2024-02-16T18:06:44;14.10;99.90
28725;DHT22;43472;48.980;9.646;2024-02-16T18:26:54;14.10;99.90
28725;DHT22;43472;48.980;9.646;2024-02-16T18:36:58;13.90;99.90
28725;DHT22;43472;48.980;9.646;2024-02-16T18:42:01;13.80;99.90
28725;DHT22;43472;48.980;9.646;2024-02-16T18:47:04;13.60;99.90
28725;DHT22;43472;48.980;9.646;2024-02-16T18:52:07;13.50;99.90
28725;DHT22;43472;48.980;9.646;2024-02-16T19:12:18;13.20;99.90
28725;DHT22;43472;48.980;9.646;2024-02-16T19:17:20;13.30;99.90
28725;DHT22;43472;48.980;9.646;2024-02-16T19:27:25;13.40;99.90
28725;DHT22;43472;48.980;9.646;2024-02-16T19:47:37;13.30;99.90
28725;DHT22;43472;48.980;9.646;2024-02-16T19:52:40;13.30;99.90
28725;DHT22;43472;48.980;9.646;2024-02-16T19:57:42;13.30;99.90
28725;DHT22;43472;48.980;9.646;2024-02-16T20:23:07;13.20;99.90
28725;DHT22;43472;48.980;9.646;2024-02-16T20:43:18;12.80;99.90
28725;DHT22;43472;48.980;9.646;2024-02-16T20:58:26;13.10;99.90
28725;DHT22;43472;48.980;9.646;2024-02-16T21:03:28;13.10;99.90
28725;DHT22;43472;48.980;9.646;2024-02-16T21:18:35;13.10;99.90
28725;DHT22;43472;48.980;9.646;2024-02-16T21:23:39;13.00;99.90
28725;DHT22;43472;48.980;9.646;2024-02-16T21:33:44;13.00;99.90
28725;DHT22;43472;48.980;9.646;2024-02-16T21:49:03;12.90;99.90
28725;DHT22;43472;48.980;9.646;2024-02-16T21:54:06;13.00;99.90
28725;DHT22;43472;48.980;9.646;2024-02-16T21:59:09;13.00;99.90
28725;DHT22;43472;48.980;9.646;2024-02-16T22:04:11;12.90;99.90
28725;DHT22;43472;48.980;9.646;2024-02-16T22:19:17;12.80;99.90
28725;DHT22;43472;48.980;9.646;2024-02-16T22:24:20;12.80;99.90
28725;DHT22;43472;48.980;9.646;2024-02-16T22:29:22;12.70;99.90
28725;DHT22;43472;48.980;9.646;2024-02-16T22:34:25;12.70;99.90
28725;DHT22;43472;48.980;9.646;2024-02-16T22:39:28;12.70;99.90
28725;DHT22;43472;48.980;9.646;2024-02-16T23:09:48;12.60;99.90
28725;DHT22;43472;48.980;9.646;2024-02-16T23:14:50;12.60;99.90
28725;DHT22;43472;48.980;9.646;2024-02-16T23:19:54;12.50;99.90
28725;DHT22;43472;48.980;9.646;2024-02-16T23:35:02;12.60;99.90
28725;DHT22;43472;48.980;9.646;2024-02-16T23:40:04;12.60;99.90
28725;DHT22;43472;48.980;9.646;2024-02-16T23:45:07;12.60;99.90
28725;DHT22;43472;48.980;9.646;2024-02-16T23:50:11;12.40;99.90
